createdAt,value
2023-03-04T00:00:30.933Z,98.75
2023-03-04T00:02:57.851Z,98.97
2023-03-04T00:05:24.870Z,98.87
2023-03-04T00:07:51.816Z,99.79
2023-03-04T00:10:18.827Z,99.97
2023-03-04T00:12:45.806Z,100.00
2023-03-04T00:15:12.698Z,100.00
2023-03-04T00:17:39.613Z,100.00
2023-03-04T00:20:07.630Z,100.00
2023-03-04T00:22:34.473Z,100.00
2023-03-04T00:25:01.533Z,100.00
2023-03-04T00:27:28.584Z,100.00
2023-03-04T00:29:56.610Z,100.00
2023-03-04T00:32:23.614Z,100.00
2023-03-04T00:34:50.565Z,100.00
2023-03-04T00:37:17.550Z,100.00
2023-03-04T00:39:44.570Z,100.00
2023-03-04T00:42:11.516Z,100.00
2023-03-04T00:44:38.420Z,100.00
2023-03-04T00:47:05.358Z,100.00
2023-03-04T00:49:32.414Z,100.00
2023-03-04T00:51:59.335Z,100.00
2023-03-04T00:54:26.277Z,100.00
2023-03-04T00:56:53.184Z,100.00
2023-03-04T00:59:20.153Z,100.00
2023-03-04T01:01:47.075Z,100.00
2023-03-04T01:04:13.971Z,100.00
2023-03-04T01:06:41.075Z,100.00
2023-03-04T01:09:08.485Z,100.00
2023-03-04T01:11:35.344Z,100.00
2023-03-04T01:14:03.452Z,100.00
2023-03-04T01:16:30.419Z,100.00
2023-03-04T01:18:57.422Z,100.00
2023-03-04T01:21:24.341Z,100.00
2023-03-04T01:23:51.320Z,100.00
2023-03-04T01:26:18.193Z,100.00
2023-03-04T01:28:45.087Z,100.00
2023-03-04T01:31:12.092Z,100.00
2023-03-04T01:33:39.112Z,100.00
2023-03-04T01:36:06.420Z,100.00
2023-03-04T01:38:33.319Z,100.00
2023-03-04T01:41:00.394Z,100.00
2023-03-04T01:43:30.521Z,100.00
2023-03-04T01:45:58.814Z,100.00
2023-03-04T01:48:36.539Z,100.00
2023-03-04T01:51:12.443Z,100.00
2023-03-04T01:53:39.530Z,100.00
2023-03-04T01:56:16.957Z,100.00
2023-03-04T01:58:43.989Z,100.00
2023-03-04T02:01:14.639Z,100.00
2023-03-04T02:03:41.635Z,100.00
2023-03-04T02:06:08.714Z,100.00
2023-03-04T02:08:35.985Z,100.00
2023-03-04T02:11:02.929Z,100.00
2023-03-04T02:13:29.893Z,100.00
2023-03-04T02:15:56.808Z,100.00
2023-03-04T02:18:24.806Z,100.00
2023-03-04T02:21:07.645Z,100.00
2023-03-04T02:24:17.744Z,100.00
2023-03-04T02:26:46.867Z,100.00
2023-03-04T02:29:16.901Z,100.00
2023-03-04T02:31:47.777Z,100.00
2023-03-04T02:34:24.888Z,100.00
2023-03-04T02:36:54.007Z,100.00
2023-03-04T02:39:36.349Z,100.00
2023-03-04T02:42:04.433Z,100.00
2023-03-04T02:44:35.231Z,100.00
2023-03-04T02:47:04.373Z,100.00
2023-03-04T02:49:33.700Z,100.00
2023-03-04T02:52:09.095Z,100.00
2023-03-04T02:54:38.051Z,100.00
2023-03-04T02:57:09.137Z,100.00
2023-03-04T02:59:38.474Z,100.00
2023-03-04T03:02:06.726Z,100.00
2023-03-04T03:04:35.116Z,100.00
2023-03-04T03:07:02.148Z,100.00
2023-03-04T03:09:29.289Z,100.00
2023-03-04T03:11:56.253Z,100.00
2023-03-04T03:14:23.181Z,100.00
2023-03-04T03:16:50.117Z,100.00
2023-03-04T03:19:17.157Z,100.00
2023-03-04T03:21:44.026Z,100.00
2023-03-04T03:24:10.970Z,100.00
2023-03-04T03:26:39.907Z,100.00
2023-03-04T03:29:06.802Z,100.00
2023-03-04T03:31:33.722Z,100.00
2023-03-04T03:34:00.704Z,100.00
2023-03-04T03:36:27.746Z,100.00
2023-03-04T03:38:54.826Z,100.00
2023-03-04T03:41:21.709Z,100.00
2023-03-04T03:43:48.712Z,100.00
2023-03-04T03:46:15.628Z,100.00
2023-03-04T03:48:42.505Z,100.00
2023-03-04T03:51:09.441Z,100.00
2023-03-04T03:53:36.366Z,100.00
2023-03-04T03:56:03.513Z,100.00
2023-03-04T03:58:30.579Z,100.00
2023-03-04T04:00:58.515Z,100.00
2023-03-04T04:03:26.057Z,100.00
2023-03-04T04:05:53.181Z,100.00
2023-03-04T04:08:20.174Z,100.00
2023-03-04T04:10:47.086Z,100.00
2023-03-04T04:13:14.181Z,100.00
2023-03-04T04:15:41.141Z,100.00
2023-03-04T04:18:08.622Z,100.00
2023-03-04T04:20:36.036Z,100.00
2023-03-04T04:23:04.115Z,100.00
2023-03-04T04:25:31.256Z,100.00
2023-03-04T04:27:58.170Z,100.00
2023-03-04T04:30:25.503Z,100.00
2023-03-04T04:32:52.441Z,100.00
2023-03-04T04:35:19.661Z,100.00
2023-03-04T04:37:47.070Z,100.00
2023-03-04T04:40:14.217Z,100.00
2023-03-04T04:42:41.323Z,100.00
2023-03-04T04:45:09.127Z,100.00
2023-03-04T04:47:36.181Z,100.00
2023-03-04T04:50:04.025Z,100.00
2023-03-04T04:52:31.194Z,100.00
2023-03-04T04:54:58.336Z,100.00
2023-03-04T04:57:25.545Z,100.00
2023-03-04T04:59:52.509Z,100.00
2023-03-04T05:02:19.388Z,100.00
2023-03-04T05:04:46.604Z,100.00
2023-03-04T05:07:13.547Z,100.00
2023-03-04T05:09:40.447Z,99.82
2023-03-04T05:12:07.514Z,99.36
2023-03-04T05:14:34.460Z,99.54
2023-03-04T05:17:01.401Z,98.25
2023-03-04T05:19:28.410Z,98.80
2023-03-04T05:21:55.345Z,98.60
2023-03-04T05:24:22.335Z,98.26
2023-03-04T05:26:49.257Z,98.94
2023-03-04T05:29:16.129Z,99.75
2023-03-04T05:31:42.991Z,100.00
2023-03-04T05:34:09.873Z,100.00
2023-03-04T05:36:36.933Z,100.00
2023-03-04T05:39:03.986Z,100.00
2023-03-04T05:41:30.923Z,100.00
2023-03-04T05:43:57.888Z,100.00
2023-03-04T05:46:25.658Z,99.89
2023-03-04T05:48:54.505Z,99.69
2023-03-04T05:51:22.712Z,99.64
2023-03-04T05:53:49.969Z,99.41
2023-03-04T05:56:19.814Z,99.98
2023-03-04T05:58:50.299Z,100.00
2023-03-04T06:01:18.436Z,98.89
2023-03-04T06:03:45.396Z,99.43
2023-03-04T06:06:12.394Z,100.00
2023-03-04T06:08:39.519Z,100.00
2023-03-04T06:11:07.094Z,100.00
2023-03-04T06:13:34.770Z,99.96
2023-03-04T06:16:02.083Z,100.00
2023-03-04T06:18:29.493Z,100.00
2023-03-04T06:21:02.215Z,100.00
2023-03-04T06:23:30.856Z,100.00
2023-03-04T06:26:00.129Z,100.00
2023-03-04T06:28:28.208Z,100.00
2023-03-04T06:30:56.854Z,100.00
2023-03-04T06:33:24.400Z,100.00
2023-03-04T06:35:55.780Z,100.00
2023-03-04T06:38:24.034Z,99.45
2023-03-04T06:40:51.124Z,99.51
2023-03-04T06:43:18.720Z,99.40
2023-03-04T06:45:45.661Z,99.14
2023-03-04T06:48:13.138Z,98.51
2023-03-04T06:50:41.056Z,97.75
2023-03-04T06:53:07.955Z,98.69
2023-03-04T06:55:34.881Z,99.74
2023-03-04T06:58:01.889Z,99.18
2023-03-04T07:00:28.873Z,99.22
2023-03-04T07:02:55.792Z,98.80
2023-03-04T07:05:22.672Z,98.16
2023-03-04T07:07:50.544Z,98.35
2023-03-04T07:10:20.407Z,98.56
2023-03-04T07:12:47.660Z,97.96
2023-03-04T07:15:14.581Z,96.91
2023-03-04T07:17:41.602Z,96.76
2023-03-04T07:20:09.675Z,97.12
2023-03-04T07:22:36.924Z,97.32
2023-03-04T07:25:05.685Z,97.48
2023-03-04T07:27:32.553Z,97.62
2023-03-04T07:29:59.623Z,97.17
2023-03-04T07:32:26.973Z,97.48
2023-03-04T07:34:55.329Z,96.50
2023-03-04T07:37:22.458Z,96.34
2023-03-04T07:39:49.505Z,96.12
2023-03-04T07:42:16.541Z,95.54
2023-03-04T07:44:43.468Z,95.60
2023-03-04T07:47:10.391Z,94.79
2023-03-04T07:49:37.379Z,95.23
2023-03-04T07:52:06.027Z,95.75
2023-03-04T07:54:33.349Z,95.50
2023-03-04T07:57:00.374Z,95.58
2023-03-04T07:59:27.382Z,95.20
2023-03-04T08:01:54.341Z,94.70
2023-03-04T08:04:21.410Z,93.52
2023-03-04T08:06:48.934Z,93.27
2023-03-04T08:09:15.859Z,93.64
2023-03-04T08:11:42.866Z,93.96
2023-03-04T08:14:12.777Z,94.24
2023-03-04T08:16:40.513Z,93.10
2023-03-04T08:19:08.217Z,93.20
2023-03-04T08:21:35.862Z,93.63
2023-03-04T08:24:08.458Z,92.33
2023-03-04T08:26:44.573Z,92.12
2023-03-04T08:29:21.134Z,91.88
2023-03-04T08:31:51.435Z,91.46
2023-03-04T08:34:20.791Z,91.19
2023-03-04T08:36:48.322Z,91.23
2023-03-04T08:39:18.219Z,89.83
2023-03-04T08:41:46.540Z,89.88
2023-03-04T08:44:13.953Z,89.80
2023-03-04T08:46:44.267Z,89.39
2023-03-04T08:49:12.951Z,87.72
2023-03-04T08:51:39.926Z,89.38
2023-03-04T08:54:07.188Z,89.70
2023-03-04T08:56:34.136Z,89.35
2023-03-04T08:59:01.067Z,87.69
2023-03-04T09:01:28.271Z,87.27
2023-03-04T09:03:55.605Z,86.59
2023-03-04T09:06:22.562Z,87.25
2023-03-04T09:08:49.526Z,86.89
2023-03-04T09:11:17.031Z,85.51
2023-03-04T09:13:44.015Z,85.60
2023-03-04T09:16:15.489Z,84.79
2023-03-04T09:18:43.261Z,85.35
2023-03-04T09:21:10.781Z,84.24
2023-03-04T09:23:38.828Z,85.33
2023-03-04T09:26:26.531Z,84.43
2023-03-04T09:28:57.316Z,85.38
2023-03-04T09:31:26.599Z,84.80
2023-03-04T09:33:55.348Z,84.10
2023-03-04T09:36:22.694Z,83.50
2023-03-04T09:38:50.007Z,84.21
2023-03-04T09:41:35.208Z,83.84
2023-03-04T09:44:30.636Z,84.48
2023-03-04T09:47:02.410Z,83.68
2023-03-04T09:49:30.788Z,82.50
2023-03-04T09:52:34.980Z,82.10
2023-03-04T09:55:20.472Z,81.63
2023-03-04T09:58:21.556Z,82.45
2023-03-04T10:01:21.734Z,82.32
2023-03-04T10:03:59.120Z,82.20
2023-03-04T10:06:26.205Z,82.33
2023-03-04T10:09:16.870Z,82.26
2023-03-04T10:12:12.694Z,82.45
2023-03-04T10:14:51.939Z,80.44
2023-03-04T10:17:39.316Z,81.20
2023-03-04T10:20:31.614Z,81.95
2023-03-04T10:23:16.423Z,82.08
2023-03-04T10:25:53.778Z,81.59
2023-03-04T10:28:30.440Z,82.20
2023-03-04T10:31:22.340Z,80.79
2023-03-04T10:33:49.808Z,81.92
2023-03-04T10:36:38.742Z,80.27
2023-03-04T10:39:18.691Z,80.42
2023-03-04T10:42:04.692Z,80.24
2023-03-04T10:44:35.161Z,81.27
2023-03-04T10:47:03.254Z,79.23
2023-03-04T10:49:30.379Z,79.75
2023-03-04T10:52:19.718Z,80.23
2023-03-04T10:54:54.315Z,82.15
2023-03-04T10:57:35.146Z,82.47
2023-03-04T11:00:18.555Z,80.75
2023-03-04T11:02:47.574Z,82.21
2023-03-04T11:05:23.627Z,81.04
2023-03-04T11:07:57.558Z,84.03
2023-03-04T11:10:36.747Z,83.68
2023-03-04T11:13:18.786Z,82.00
2023-03-04T11:16:30.994Z,82.86
2023-03-04T11:19:12.415Z,81.91
2023-03-04T11:21:41.086Z,81.38
2023-03-04T11:24:29.109Z,82.28
2023-03-04T11:27:36.607Z,82.02
2023-03-04T11:30:31.741Z,81.27
2023-03-04T11:33:43.556Z,81.07
2023-03-04T11:36:41.001Z,80.99
2023-03-04T11:39:25.829Z,81.63
2023-03-04T11:42:03.332Z,82.03
2023-03-04T11:44:31.431Z,82.15
2023-03-04T11:47:19.412Z,81.79
2023-03-04T11:49:56.457Z,81.88
2023-03-04T11:53:00.465Z,81.07
2023-03-04T11:56:10.582Z,81.68
2023-03-04T11:59:01.688Z,80.71
2023-03-04T12:02:08.289Z,80.31
2023-03-04T12:04:56.243Z,80.00
2023-03-04T12:07:32.260Z,80.78
2023-03-04T12:10:30.300Z,81.01
2023-03-04T12:13:30.463Z,80.38
2023-03-04T12:16:21.523Z,79.86
2023-03-04T12:19:09.834Z,81.24
2023-03-04T12:22:09.214Z,78.95
2023-03-04T12:25:16.690Z,79.70
2023-03-04T12:28:08.749Z,79.06
2023-03-04T12:30:58.342Z,78.49
2023-03-04T12:33:34.251Z,79.54
2023-03-04T12:36:07.183Z,79.30
2023-03-04T12:39:00.126Z,77.97
2023-03-04T12:42:02.704Z,77.72
2023-03-04T12:44:37.002Z,78.14
2023-03-04T12:47:24.397Z,78.09
2023-03-04T12:50:22.286Z,79.42
2023-03-04T12:53:11.943Z,78.08
2023-03-04T12:55:43.514Z,77.72
2023-03-04T12:58:37.171Z,78.83
2023-03-04T13:01:15.914Z,78.60
2023-03-04T13:04:12.895Z,80.19
2023-03-04T13:07:15.847Z,79.02
2023-03-04T13:10:02.628Z,78.57
2023-03-04T13:12:56.013Z,77.57
2023-03-04T13:15:23.012Z,77.82
2023-03-04T13:18:28.771Z,77.72
2023-03-04T13:21:30.026Z,76.48
2023-03-04T13:23:58.159Z,78.16
2023-03-04T13:26:35.187Z,78.65
2023-03-04T13:29:14.195Z,80.41
2023-03-04T13:32:11.503Z,77.77
2023-03-04T13:34:51.830Z,78.27
2023-03-04T13:37:31.169Z,78.13
2023-03-04T13:40:34.210Z,78.34
2023-03-04T13:43:52.622Z,77.53
2023-03-04T13:46:19.531Z,77.88
2023-03-04T13:48:52.658Z,77.43
2023-03-04T13:51:45.015Z,78.46
2023-03-04T13:54:32.628Z,78.21
2023-03-04T13:57:18.509Z,78.82
2023-03-04T13:59:49.813Z,78.84
2023-03-04T14:02:22.766Z,77.60
2023-03-04T14:05:02.014Z,79.84
2023-03-04T14:07:36.535Z,77.41
2023-03-04T14:10:20.737Z,78.12
2023-03-04T14:12:56.870Z,76.92
2023-03-04T14:15:30.089Z,78.38
2023-03-04T14:17:59.933Z,79.17
2023-03-04T14:20:32.725Z,78.75
2023-03-04T14:23:23.149Z,78.52
2023-03-04T14:25:50.345Z,78.54
2023-03-04T14:28:20.589Z,78.47
2023-03-04T14:30:56.712Z,78.89
2023-03-04T14:33:27.979Z,77.83
2023-03-04T14:35:59.852Z,77.87
2023-03-04T14:38:41.597Z,77.84
2023-03-04T14:41:23.570Z,77.84
2023-03-04T14:44:09.320Z,78.90
2023-03-04T14:47:06.560Z,78.81
2023-03-04T14:49:37.070Z,77.58
2023-03-04T14:52:04.823Z,77.50
2023-03-04T14:54:37.703Z,78.08
2023-03-04T14:57:34.889Z,77.20
2023-03-04T15:00:21.583Z,78.99
2023-03-04T15:02:58.764Z,79.36
2023-03-04T15:05:30.027Z,78.67
2023-03-04T15:08:07.186Z,78.89
2023-03-04T15:10:38.031Z,75.84
2023-03-04T15:13:08.863Z,76.86
2023-03-04T15:15:46.771Z,77.46
2023-03-04T15:18:23.397Z,77.29
2023-03-04T15:21:03.272Z,78.35
2023-03-04T15:23:33.594Z,78.39
2023-03-04T15:26:04.262Z,78.53
2023-03-04T15:28:37.847Z,78.14
2023-03-04T15:31:06.406Z,77.31
2023-03-04T15:33:34.086Z,77.76
2023-03-04T15:36:03.149Z,76.82
2023-03-04T15:38:30.474Z,78.40
2023-03-04T15:40:59.578Z,79.03
2023-03-04T15:43:27.028Z,79.96
2023-03-04T15:45:54.218Z,78.16
2023-03-04T15:48:21.611Z,77.45
2023-03-04T15:50:52.542Z,75.96
2023-03-04T15:53:40.902Z,75.02
2023-03-04T15:56:17.597Z,74.67
2023-03-04T15:58:47.624Z,75.63
2023-03-04T16:01:17.287Z,76.38
2023-03-04T16:03:44.338Z,75.76
2023-03-04T16:06:14.872Z,76.41
2023-03-04T16:08:42.794Z,75.97
2023-03-04T16:11:21.258Z,75.54
2023-03-04T16:13:48.586Z,75.67
2023-03-04T16:16:15.915Z,75.45
2023-03-04T16:18:43.752Z,76.42
2023-03-04T16:21:16.337Z,76.35
2023-03-04T16:23:47.396Z,76.57
2023-03-04T16:26:28.384Z,76.62
2023-03-04T16:28:55.309Z,77.09
2023-03-04T16:31:23.068Z,76.92
2023-03-04T16:33:51.244Z,77.12
2023-03-04T16:36:27.365Z,76.57
2023-03-04T16:39:02.708Z,75.93
2023-03-04T16:41:33.165Z,77.59
2023-03-04T16:44:01.129Z,77.30
2023-03-04T16:46:29.948Z,76.82
2023-03-04T16:48:56.926Z,76.77
2023-03-04T16:51:24.108Z,77.17
2023-03-04T16:54:00.048Z,77.76
2023-03-04T16:56:27.609Z,77.90
2023-03-04T16:58:54.700Z,77.19
2023-03-04T17:01:28.871Z,76.36
2023-03-04T17:03:56.881Z,75.79
2023-03-04T17:06:24.474Z,76.40
2023-03-04T17:08:51.729Z,76.14
2023-03-04T17:11:23.473Z,76.89
2023-03-04T17:13:51.502Z,76.61
2023-03-04T17:16:18.822Z,76.56
2023-03-04T17:18:46.275Z,76.96
2023-03-04T17:21:20.641Z,76.64
2023-03-04T17:23:47.892Z,76.64
2023-03-04T17:26:15.970Z,77.07
2023-03-04T17:28:43.217Z,77.56
2023-03-04T17:31:17.078Z,78.27
2023-03-04T17:33:45.124Z,78.52
2023-03-04T17:36:14.223Z,78.05
2023-03-04T17:38:41.827Z,77.27
2023-03-04T17:41:17.540Z,76.86
2023-03-04T17:43:47.244Z,77.24
2023-03-04T17:46:17.020Z,77.27
2023-03-04T17:48:44.362Z,77.83
2023-03-04T17:51:12.258Z,78.04
2023-03-04T17:53:39.927Z,78.66
2023-03-04T17:56:09.172Z,78.93
2023-03-04T17:58:37.219Z,78.58
2023-03-04T18:01:17.614Z,79.53
2023-03-04T18:03:45.129Z,79.82
2023-03-04T18:06:12.642Z,80.24
2023-03-04T18:08:39.558Z,79.94
2023-03-04T18:11:06.604Z,78.63
2023-03-04T18:13:33.491Z,78.11
2023-03-04T18:16:00.466Z,79.25
2023-03-04T18:18:27.541Z,79.51
2023-03-04T18:21:01.419Z,79.88
2023-03-04T18:23:29.091Z,80.01
2023-03-04T18:25:56.217Z,79.88
2023-03-04T18:28:23.551Z,79.87
2023-03-04T18:30:54.503Z,79.74
2023-03-04T18:33:21.972Z,79.70
2023-03-04T18:35:49.031Z,79.85
2023-03-04T18:38:16.468Z,79.82
2023-03-04T18:40:44.242Z,80.53
2023-03-04T18:43:11.367Z,79.32
2023-03-04T18:45:38.329Z,79.58
2023-03-04T18:48:05.743Z,80.27
2023-03-04T18:50:32.842Z,80.53
2023-03-04T18:52:59.849Z,80.42
2023-03-04T18:55:26.852Z,80.17
2023-03-04T18:57:58.012Z,79.83
2023-03-04T19:00:25.769Z,79.94
2023-03-04T19:03:01.848Z,79.69
2023-03-04T19:05:32.514Z,79.81
2023-03-04T19:08:00.031Z,80.05
2023-03-04T19:10:27.310Z,79.67
2023-03-04T19:12:54.285Z,79.76
2023-03-04T19:15:21.265Z,79.86
2023-03-04T19:17:48.380Z,79.07
2023-03-04T19:20:16.660Z,79.60
2023-03-04T19:22:44.449Z,79.88
2023-03-04T19:25:11.945Z,78.80
2023-03-04T19:27:39.004Z,79.46
2023-03-04T19:30:07.596Z,78.87
2023-03-04T19:32:34.571Z,80.20
2023-03-04T19:35:01.871Z,79.35
2023-03-04T19:37:28.894Z,79.66
2023-03-04T19:39:56.060Z,79.73
2023-03-04T19:42:24.217Z,79.65
2023-03-04T19:44:51.543Z,81.28
2023-03-04T19:47:18.540Z,81.45
2023-03-04T19:49:45.683Z,80.00
2023-03-04T19:52:12.612Z,80.83
2023-03-04T19:54:39.832Z,81.28
2023-03-04T19:57:06.856Z,80.81
2023-03-04T19:59:35.243Z,81.13
2023-03-04T20:02:02.909Z,80.23
2023-03-04T20:04:29.971Z,81.24
2023-03-04T20:06:56.986Z,80.67
2023-03-04T20:09:23.916Z,81.27
2023-03-04T20:11:58.134Z,81.16
2023-03-04T20:14:27.393Z,81.20
2023-03-04T20:16:58.710Z,81.38
2023-03-04T20:19:25.690Z,80.69
2023-03-04T20:21:52.649Z,80.54
2023-03-04T20:24:20.041Z,79.82
2023-03-04T20:26:46.909Z,80.82
2023-03-04T20:29:13.787Z,81.58
2023-03-04T20:31:41.076Z,81.18
2023-03-04T20:34:08.740Z,80.17
2023-03-04T20:36:36.144Z,81.23
2023-03-04T20:39:08.289Z,81.47
2023-03-04T20:41:42.321Z,81.30
2023-03-04T20:44:09.284Z,81.20
2023-03-04T20:46:46.118Z,81.11
2023-03-04T20:49:26.954Z,81.63
2023-03-04T20:52:06.163Z,81.71
2023-03-04T20:54:38.497Z,81.35
2023-03-04T20:57:10.638Z,81.81
2023-03-04T20:59:39.456Z,81.67
2023-03-04T21:02:10.995Z,81.74
2023-03-04T21:04:38.005Z,81.67
2023-03-04T21:07:04.938Z,82.50
2023-03-04T21:09:31.934Z,82.17
2023-03-04T21:12:00.818Z,82.28
2023-03-04T21:14:32.364Z,81.68
2023-03-04T21:17:02.989Z,81.67
2023-03-04T21:19:36.142Z,82.26
2023-03-04T21:22:04.074Z,82.12
2023-03-04T21:24:34.397Z,81.69
2023-03-04T21:27:01.824Z,80.96
2023-03-04T21:29:28.814Z,80.91
2023-03-04T21:32:16.899Z,81.91
2023-03-04T21:34:51.788Z,82.45
2023-03-04T21:37:23.888Z,81.27
2023-03-04T21:39:51.174Z,81.41
2023-03-04T21:42:18.493Z,81.53
2023-03-04T21:44:49.080Z,81.39
2023-03-04T21:47:17.714Z,82.17
2023-03-04T21:49:44.724Z,82.87
2023-03-04T21:52:13.019Z,83.20
2023-03-04T21:54:39.966Z,83.18
2023-03-04T21:57:06.938Z,81.98
2023-03-04T21:59:34.006Z,82.07
2023-03-04T22:02:02.223Z,81.69
2023-03-04T22:04:29.229Z,82.32
2023-03-04T22:06:56.162Z,82.08
2023-03-04T22:09:23.106Z,81.57
2023-03-04T22:11:50.138Z,81.80
2023-03-04T22:14:17.102Z,82.16
2023-03-04T22:16:59.285Z,81.97
2023-03-04T22:19:30.928Z,82.01
2023-03-04T22:21:59.135Z,81.79
2023-03-04T22:24:26.362Z,81.88
2023-03-04T22:26:56.764Z,82.57
2023-03-04T22:29:23.705Z,82.78
2023-03-04T22:31:50.616Z,82.62
2023-03-04T22:34:18.767Z,82.88
2023-03-04T22:36:47.208Z,82.33
2023-03-04T22:39:20.764Z,83.23
2023-03-04T22:41:48.132Z,83.06
2023-03-04T22:44:15.217Z,83.22
2023-03-04T22:46:42.747Z,83.09
2023-03-04T22:49:12.365Z,83.01
2023-03-04T22:51:44.391Z,82.59
2023-03-04T22:54:17.043Z,82.06
2023-03-04T22:56:44.893Z,82.71
2023-03-04T22:59:12.150Z,82.36
2023-03-04T23:01:39.134Z,82.45
2023-03-04T23:04:06.034Z,82.43
2023-03-04T23:06:33.254Z,82.05
2023-03-04T23:09:00.648Z,82.72
2023-03-04T23:11:35.356Z,83.16
2023-03-04T23:14:06.338Z,83.21
2023-03-04T23:16:39.110Z,82.27
2023-03-04T23:19:07.187Z,82.50
2023-03-04T23:21:35.577Z,82.93
2023-03-04T23:24:04.024Z,83.19
2023-03-04T23:26:38.882Z,82.96
2023-03-04T23:29:11.399Z,82.95
2023-03-04T23:31:38.536Z,83.45
2023-03-04T23:34:06.926Z,83.70
2023-03-04T23:36:37.043Z,84.45
2023-03-04T23:39:06.393Z,84.64
2023-03-04T23:41:35.059Z,83.96
2023-03-04T23:44:02.886Z,84.06
2023-03-04T23:46:30.055Z,84.72
2023-03-04T23:48:57.683Z,84.23
2023-03-04T23:51:28.418Z,84.25
2023-03-04T23:53:56.428Z,85.02
2023-03-04T23:56:30.252Z,85.09
2023-03-04T23:58:58.648Z,84.98
